createdAt,value
2022-10-30T00:01:56.577Z,61.60
2022-10-30T00:04:58.456Z,61.30
2022-10-30T00:08:00.852Z,61.20
2022-10-30T00:11:06.876Z,61.50
2022-10-30T00:14:08.585Z,61.30
2022-10-30T00:17:09.965Z,61.40
2022-10-30T00:20:11.268Z,61.60
2022-10-30T00:23:13.919Z,61.60
2022-10-30T00:26:16.122Z,61.20
2022-10-30T00:29:17.819Z,61.40
2022-10-30T00:32:19.089Z,61.40
2022-10-30T00:35:20.770Z,62.00
2022-10-30T00:38:22.983Z,61.50
2022-10-30T00:41:24.873Z,61.60
2022-10-30T00:44:44.537Z,61.50
2022-10-30T00:47:50.989Z,61.60
2022-10-30T00:50:53.703Z,61.30
2022-10-30T00:53:57.349Z,61.60
2022-10-30T00:57:00.435Z,61.50
2022-10-30T01:00:04.197Z,61.70
2022-10-30T01:03:05.918Z,61.50
2022-10-30T01:06:11.495Z,61.60
2022-10-30T01:09:14.656Z,61.20
2022-10-30T01:12:16.327Z,61.70
2022-10-30T01:15:22.805Z,61.80
2022-10-30T01:18:33.715Z,61.70
2022-10-30T01:21:48.449Z,61.60
2022-10-30T01:25:03.018Z,61.70
2022-10-30T01:28:15.009Z,61.60
2022-10-30T01:31:30.904Z,61.80
2022-10-30T01:37:57.188Z,61.70
2022-10-30T01:40:59.574Z,61.80
2022-10-30T01:44:06.229Z,61.70
2022-10-30T01:47:26.972Z,61.80
2022-10-30T01:50:37.838Z,62.00
2022-10-30T01:53:49.136Z,61.60
2022-10-30T01:56:55.220Z,62.00
2022-10-30T02:00:01.143Z,61.90
2022-10-30T02:03:04.514Z,62.00
2022-10-30T02:06:06.193Z,61.90
2022-10-30T02:09:11.119Z,62.20
2022-10-30T02:12:22.409Z,62.10
2022-10-30T02:15:24.303Z,62.10
2022-10-30T02:18:25.565Z,62.30
2022-10-30T02:21:28.203Z,62.50
2022-10-30T02:24:30.447Z,62.50
2022-10-30T02:27:31.867Z,62.30
2022-10-30T02:30:33.229Z,62.30
2022-10-30T02:33:36.693Z,62.50
2022-10-30T02:36:39.591Z,62.50
2022-10-30T02:39:41.351Z,62.50
2022-10-30T02:42:43.009Z,62.70
2022-10-30T02:45:50.212Z,62.60
2022-10-30T02:48:52.092Z,62.90
2022-10-30T02:51:54.134Z,62.30
2022-10-30T02:54:55.491Z,63.00
2022-10-30T02:57:57.139Z,63.20
2022-10-30T03:01:04.114Z,63.10
2022-10-30T03:04:05.556Z,63.20
2022-10-30T03:07:07.641Z,63.40
2022-10-30T03:10:09.988Z,63.20
2022-10-30T03:13:11.856Z,63.40
2022-10-30T03:16:14.464Z,63.40
2022-10-30T03:19:15.948Z,63.80
2022-10-30T03:22:17.977Z,63.40
2022-10-30T03:25:22.693Z,63.50
2022-10-30T03:28:30.472Z,63.70
2022-10-30T03:31:32.564Z,63.30
2022-10-30T03:34:53.862Z,63.50
2022-10-30T03:37:55.924Z,63.80
2022-10-30T03:40:58.164Z,64.10
2022-10-30T03:43:59.639Z,63.40
2022-10-30T03:47:01.301Z,63.60
2022-10-30T03:50:09.184Z,63.60
2022-10-30T03:53:11.720Z,63.50
2022-10-30T03:56:13.781Z,63.10
2022-10-30T03:59:21.398Z,63.20
2022-10-30T04:02:45.836Z,62.90
2022-10-30T04:05:50.251Z,77.30
2022-10-30T04:08:54.853Z,62.60
2022-10-30T04:11:56.744Z,62.20
2022-10-30T04:14:58.167Z,62.50
2022-10-30T04:18:00.238Z,62.10
2022-10-30T04:21:02.212Z,61.90
2022-10-30T04:24:04.848Z,61.90
2022-10-30T04:27:08.723Z,61.70
2022-10-30T04:30:12.030Z,61.40
2022-10-30T04:33:14.140Z,60.80
2022-10-30T04:36:17.312Z,60.80
2022-10-30T04:39:20.788Z,61.10
2022-10-30T04:42:29.226Z,60.80
2022-10-30T04:45:30.907Z,60.40
2022-10-30T04:48:34.256Z,60.20
2022-10-30T04:51:35.731Z,60.20
2022-10-30T04:54:40.158Z,60.40
2022-10-30T04:57:41.869Z,60.10
2022-10-30T05:00:43.314Z,60.10
2022-10-30T05:03:48.133Z,60.00
2022-10-30T05:06:52.259Z,60.00
2022-10-30T05:09:54.075Z,60.00
2022-10-30T05:12:59.388Z,60.00
2022-10-30T05:16:01.365Z,59.90
2022-10-30T05:19:02.706Z,59.80
2022-10-30T05:22:04.247Z,60.00
2022-10-30T05:25:07.025Z,60.00
2022-10-30T05:28:10.315Z,59.60
2022-10-30T05:31:18.617Z,60.00
2022-10-30T05:34:39.946Z,59.90
2022-10-30T05:37:41.560Z,60.00
2022-10-30T05:40:45.463Z,59.80
2022-10-30T05:43:50.336Z,60.00
2022-10-30T05:46:52.263Z,59.80
2022-10-30T05:49:59.517Z,59.80
2022-10-30T05:53:03.679Z,59.70
2022-10-30T05:56:06.272Z,59.50
2022-10-30T05:59:09.641Z,59.40
2022-10-30T06:02:11.239Z,59.30
2022-10-30T06:05:12.770Z,59.30
2022-10-30T06:08:15.711Z,59.10
2022-10-30T06:11:18.715Z,59.10
2022-10-30T06:14:26.472Z,59.00
2022-10-30T06:17:30.042Z,58.90
2022-10-30T06:20:48.411Z,59.10
2022-10-30T06:24:04.418Z,59.00
2022-10-30T06:27:18.792Z,58.80
2022-10-30T06:30:20.922Z,58.80
2022-10-30T06:33:22.642Z,58.60
2022-10-30T06:36:26.079Z,58.60
2022-10-30T06:39:28.312Z,58.60
2022-10-30T06:42:49.304Z,58.80
2022-10-30T06:46:04.612Z,58.50
2022-10-30T06:49:09.696Z,58.80
2022-10-30T06:52:10.965Z,58.50
2022-10-30T06:55:12.667Z,58.70
2022-10-30T06:58:38.289Z,58.90
2022-10-30T07:01:43.789Z,58.70
2022-10-30T07:04:57.100Z,58.60
2022-10-30T07:07:58.930Z,58.90
2022-10-30T07:11:01.518Z,58.60
2022-10-30T07:14:14.427Z,58.60
2022-10-30T07:17:34.206Z,58.40
2022-10-30T07:20:42.744Z,58.40
2022-10-30T07:23:44.437Z,58.50
2022-10-30T07:27:03.859Z,58.40
2022-10-30T07:30:17.401Z,58.40
2022-10-30T07:33:38.757Z,58.00
2022-10-30T07:36:51.188Z,58.50
2022-10-30T07:40:09.903Z,58.40
2022-10-30T07:43:23.878Z,58.00
2022-10-30T07:46:44.419Z,58.60
2022-10-30T07:50:04.640Z,58.10
2022-10-30T07:53:07.870Z,58.20
2022-10-30T07:56:09.176Z,58.40
2022-10-30T07:59:30.534Z,58.70
2022-10-30T08:02:56.532Z,58.40
2022-10-30T08:09:14.571Z,58.30
2022-10-30T08:12:15.817Z,58.40
2022-10-30T08:15:17.311Z,58.60
2022-10-30T08:18:19.183Z,58.50
2022-10-30T08:21:25.349Z,58.50
2022-10-30T08:24:33.131Z,58.30
2022-10-30T08:27:36.061Z,58.40
2022-10-30T08:30:39.035Z,58.20
2022-10-30T08:33:43.982Z,58.40
2022-10-30T08:37:04.940Z,58.50
2022-10-30T08:40:07.718Z,58.20
2022-10-30T08:43:14.703Z,58.10
2022-10-30T08:46:17.131Z,58.40
2022-10-30T08:49:19.313Z,58.40
2022-10-30T08:52:27.512Z,58.30
2022-10-30T08:55:32.163Z,58.30
2022-10-30T08:58:36.407Z,58.20
2022-10-30T09:01:39.058Z,58.10
2022-10-30T09:05:00.968Z,58.50
2022-10-30T09:08:22.792Z,58.60
2022-10-30T09:11:44.149Z,58.50
2022-10-30T09:14:45.928Z,58.60
2022-10-30T09:17:47.215Z,58.40
2022-10-30T09:20:49.416Z,58.40
2022-10-30T09:23:51.369Z,58.40
2022-10-30T09:27:12.655Z,58.50
2022-10-30T09:30:23.463Z,58.50
2022-10-30T09:33:27.609Z,58.50
2022-10-30T09:36:49.616Z,58.40
2022-10-30T09:39:52.702Z,58.50
2022-10-30T09:43:01.430Z,58.40
2022-10-30T09:46:19.521Z,58.30
2022-10-30T09:49:34.451Z,58.30
2022-10-30T09:52:44.051Z,58.40
2022-10-30T09:55:51.113Z,58.10
2022-10-30T09:59:00.398Z,58.00
2022-10-30T10:02:19.379Z,58.40
2022-10-30T10:05:25.982Z,58.30
2022-10-30T10:08:53.093Z,58.30
2022-10-30T10:12:32.011Z,58.30
2022-10-30T10:15:39.053Z,58.60
2022-10-30T10:18:47.829Z,58.40
2022-10-30T10:21:55.273Z,58.40
2022-10-30T10:24:57.307Z,58.30
2022-10-30T10:28:14.514Z,58.70
2022-10-30T10:31:31.356Z,58.70
2022-10-30T10:34:47.734Z,58.40
2022-10-30T10:37:58.739Z,58.50
2022-10-30T10:41:13.465Z,58.60
2022-10-30T10:44:27.656Z,58.70
2022-10-30T10:47:43.339Z,58.50
2022-10-30T10:50:49.156Z,58.50
2022-10-30T10:53:55.010Z,58.70
2022-10-30T10:57:00.103Z,58.80
2022-10-30T11:00:04.441Z,59.00
2022-10-30T11:03:12.822Z,59.00
2022-10-30T11:06:20.320Z,59.00
2022-10-30T11:09:24.195Z,59.00
2022-10-30T11:12:33.698Z,58.90
2022-10-30T11:15:47.468Z,59.00
2022-10-30T11:18:54.365Z,59.20
2022-10-30T11:21:56.874Z,59.10
2022-10-30T11:25:18.376Z,59.30
2022-10-30T11:28:34.102Z,59.10
2022-10-30T11:31:39.602Z,59.30
2022-10-30T11:34:41.069Z,59.10
2022-10-30T11:37:42.741Z,59.30
2022-10-30T11:40:46.323Z,59.50
2022-10-30T11:43:49.029Z,59.40
2022-10-30T11:46:50.718Z,59.40
2022-10-30T11:49:55.507Z,59.60
2022-10-30T11:53:00.026Z,59.40
2022-10-30T11:56:03.545Z,59.40
2022-10-30T11:59:06.772Z,59.20
2022-10-30T12:02:26.374Z,59.60
2022-10-30T12:05:32.009Z,59.70
2022-10-30T12:08:33.571Z,59.40
2022-10-30T12:11:36.776Z,59.70
2022-10-30T12:14:38.997Z,59.50
2022-10-30T12:17:40.851Z,59.70
2022-10-30T12:20:47.442Z,59.70
2022-10-30T12:23:54.132Z,59.80
2022-10-30T12:26:57.084Z,59.60
2022-10-30T12:30:09.551Z,59.80
2022-10-30T12:33:17.117Z,59.70
2022-10-30T12:36:21.458Z,59.60
2022-10-30T12:39:30.602Z,60.00
2022-10-30T12:42:39.155Z,60.00
2022-10-30T12:45:44.369Z,60.00
2022-10-30T12:48:52.676Z,59.90
2022-10-30T12:51:58.076Z,60.80
2022-10-30T12:55:03.297Z,60.10
2022-10-30T12:58:16.689Z,60.10
2022-10-30T13:01:26.099Z,60.10
2022-10-30T13:04:33.989Z,60.30
2022-10-30T13:07:41.181Z,60.00
2022-10-30T13:10:46.603Z,60.10
2022-10-30T13:13:51.147Z,60.50
2022-10-30T13:16:53.270Z,60.30
2022-10-30T13:19:54.932Z,60.20
2022-10-30T13:23:00.706Z,60.60
2022-10-30T13:26:09.543Z,60.50
2022-10-30T13:29:23.490Z,60.50
2022-10-30T13:32:36.163Z,60.40
2022-10-30T13:35:48.454Z,60.40
2022-10-30T13:38:57.382Z,60.30
2022-10-30T13:42:13.768Z,60.30
2022-10-30T13:45:37.326Z,60.20
2022-10-30T13:48:55.331Z,60.40
2022-10-30T13:52:05.552Z,60.20
2022-10-30T13:55:16.255Z,60.60
2022-10-30T13:58:25.894Z,60.40
2022-10-30T14:01:34.329Z,60.30
2022-10-30T14:04:43.095Z,60.40
2022-10-30T14:07:56.495Z,60.50
2022-10-30T14:11:00.697Z,60.50
2022-10-30T14:14:05.780Z,60.50
2022-10-30T14:17:12.096Z,60.40
2022-10-30T14:20:27.504Z,60.10
2022-10-30T14:23:34.141Z,60.30
2022-10-30T14:26:35.681Z,60.50
2022-10-30T14:29:43.813Z,60.60
2022-10-30T14:32:51.173Z,60.50
2022-10-30T14:36:16.961Z,60.50
2022-10-30T14:39:29.033Z,60.40
2022-10-30T14:42:36.509Z,60.60
2022-10-30T14:45:43.946Z,60.50
2022-10-30T14:48:52.902Z,60.50
2022-10-30T14:52:07.744Z,60.50
2022-10-30T14:55:24.906Z,60.50
2022-10-30T14:58:28.924Z,60.30
2022-10-30T15:01:37.138Z,60.20
2022-10-30T15:04:56.151Z,59.90
2022-10-30T15:08:14.841Z,60.00
2022-10-30T15:11:49.621Z,60.00
2022-10-30T15:14:55.420Z,59.90
2022-10-30T15:18:00.804Z,60.00
2022-10-30T15:21:04.841Z,59.60
2022-10-30T15:24:13.201Z,59.60
2022-10-30T15:27:17.350Z,59.70
2022-10-30T15:30:24.946Z,59.40
2022-10-30T15:33:26.905Z,59.30
2022-10-30T15:36:34.707Z,59.20
2022-10-30T15:39:36.882Z,59.20
2022-10-30T15:42:39.660Z,59.00
2022-10-30T15:45:43.835Z,59.10
2022-10-30T15:48:46.795Z,58.90
2022-10-30T15:51:48.338Z,58.80
2022-10-30T15:54:56.942Z,58.70
2022-10-30T15:58:03.933Z,58.50
2022-10-30T16:01:06.145Z,58.20
2022-10-30T16:04:15.228Z,58.40
2022-10-30T16:07:18.656Z,58.20
2022-10-30T16:10:23.072Z,58.60
2022-10-30T16:13:29.556Z,57.90
2022-10-30T16:16:31.380Z,57.80
2022-10-30T16:19:39.077Z,57.70
2022-10-30T16:22:40.730Z,57.60
2022-10-30T16:25:47.044Z,57.40
2022-10-30T16:28:48.804Z,57.60
2022-10-30T16:31:51.985Z,57.50
2022-10-30T16:34:56.752Z,57.30
2022-10-30T16:38:01.805Z,57.40
2022-10-30T16:41:12.523Z,57.50
2022-10-30T16:44:21.176Z,57.20
2022-10-30T16:47:25.024Z,57.10
2022-10-30T16:50:30.966Z,57.20
2022-10-30T16:53:32.568Z,57.20
2022-10-30T16:56:34.833Z,57.00
2022-10-30T16:59:43.490Z,57.30
2022-10-30T17:02:48.265Z,56.90
2022-10-30T17:05:57.445Z,71.60
2022-10-30T17:08:59.752Z,57.10
2022-10-30T17:12:09.930Z,57.10
2022-10-30T17:15:13.086Z,56.80
2022-10-30T17:18:16.200Z,56.80
2022-10-30T17:21:21.409Z,57.10
2022-10-30T17:24:28.353Z,57.20
2022-10-30T17:27:49.278Z,56.70
2022-10-30T17:30:50.837Z,56.70
2022-10-30T17:34:15.644Z,57.00
2022-10-30T17:37:17.037Z,56.70
2022-10-30T17:40:19.526Z,57.00
2022-10-30T17:43:26.763Z,57.20
2022-10-30T17:46:28.654Z,56.90
2022-10-30T17:49:31.799Z,56.90
2022-10-30T17:52:35.094Z,57.00
2022-10-30T17:55:37.981Z,56.70
2022-10-30T17:58:43.323Z,56.80
2022-10-30T18:01:44.890Z,56.90
2022-10-30T18:04:47.353Z,56.90
2022-10-30T18:10:51.226Z,57.10
2022-10-30T18:13:55.423Z,57.30
2022-10-30T18:16:57.137Z,57.10
2022-10-30T18:19:58.518Z,56.90
2022-10-30T18:23:00.118Z,57.20
2022-10-30T18:26:01.752Z,57.10
2022-10-30T18:29:07.846Z,57.20
2022-10-30T18:32:09.977Z,57.00
2022-10-30T18:35:15.784Z,57.00
2022-10-30T18:38:17.209Z,56.80
2022-10-30T18:41:20.731Z,57.20
2022-10-30T18:44:22.686Z,57.20
2022-10-30T18:47:24.287Z,57.10
2022-10-30T18:50:27.098Z,57.00
2022-10-30T18:53:34.261Z,56.90
2022-10-30T18:56:36.584Z,57.20
2022-10-30T18:59:38.581Z,57.00
2022-10-30T19:02:40.123Z,57.20
2022-10-30T19:05:43.892Z,57.20
2022-10-30T19:08:45.702Z,56.90
2022-10-30T19:11:47.059Z,57.20
2022-10-30T19:14:48.931Z,57.00
2022-10-30T19:17:50.519Z,57.30
2022-10-30T19:21:03.924Z,57.20
2022-10-30T19:24:12.574Z,56.90
2022-10-30T19:27:14.072Z,57.10
2022-10-30T19:30:17.072Z,57.30
2022-10-30T19:33:19.746Z,57.10
2022-10-30T19:36:27.387Z,57.10
2022-10-30T19:39:31.927Z,57.30
2022-10-30T19:42:33.331Z,57.30
2022-10-30T19:45:35.572Z,57.10
2022-10-30T19:48:56.811Z,57.20
2022-10-30T19:51:58.943Z,57.00
2022-10-30T19:55:00.171Z,56.90
2022-10-30T19:58:03.192Z,57.40
2022-10-30T20:01:05.654Z,56.90
2022-10-30T20:04:07.155Z,57.30
2022-10-30T20:07:08.877Z,57.40
2022-10-30T20:10:17.367Z,56.80
2022-10-30T20:13:19.860Z,56.70
2022-10-30T20:16:22.161Z,56.90
2022-10-30T20:19:28.174Z,57.10
2022-10-30T20:22:29.570Z,56.80
2022-10-30T20:25:30.854Z,57.20
2022-10-30T20:28:35.077Z,57.20
2022-10-30T20:31:37.077Z,56.90
2022-10-30T20:34:38.452Z,57.00
2022-10-30T20:37:39.915Z,57.30
2022-10-30T20:40:41.332Z,57.30
2022-10-30T20:43:42.544Z,57.00
2022-10-30T20:46:45.359Z,57.40
2022-10-30T20:49:50.019Z,71.60
2022-10-30T20:52:52.745Z,56.90
2022-10-30T20:55:54.802Z,57.20
2022-10-30T20:58:56.334Z,56.60
2022-10-30T21:01:58.589Z,57.00
2022-10-30T21:05:11.747Z,56.90
2022-10-30T21:08:22.273Z,57.10
2022-10-30T21:11:23.535Z,57.00
2022-10-30T21:14:24.940Z,57.20
2022-10-30T21:17:26.987Z,57.00
2022-10-30T21:20:28.559Z,57.30
2022-10-30T21:23:29.996Z,57.20
2022-10-30T21:26:31.371Z,57.10
2022-10-30T21:29:35.162Z,57.30
2022-10-30T21:32:37.355Z,57.30
2022-10-30T21:35:38.765Z,57.20
2022-10-30T21:38:41.215Z,57.10
2022-10-30T21:41:42.651Z,57.10
2022-10-30T21:44:43.896Z,57.70
2022-10-30T21:47:51.689Z,57.40
2022-10-30T21:50:53.333Z,57.10
2022-10-30T21:53:55.721Z,57.10
2022-10-30T21:56:59.408Z,56.90
2022-10-30T22:00:05.470Z,56.80
2022-10-30T22:03:10.914Z,56.70
2022-10-30T22:06:16.364Z,57.10
2022-10-30T22:09:18.559Z,56.80
2022-10-30T22:12:20.192Z,56.70
2022-10-30T22:15:21.591Z,56.80
2022-10-30T22:18:23.590Z,56.90
2022-10-30T22:21:25.598Z,56.60
2022-10-30T22:24:27.099Z,56.60
2022-10-30T22:27:28.357Z,56.60
2022-10-30T22:30:29.793Z,57.10
2022-10-30T22:33:32.042Z,56.70
2022-10-30T22:36:33.729Z,56.70
2022-10-30T22:39:35.258Z,56.90
2022-10-30T22:42:36.482Z,56.50
2022-10-30T22:45:37.882Z,57.10
2022-10-30T22:48:43.470Z,56.90
2022-10-30T22:51:45.391Z,56.10
2022-10-30T22:54:47.146Z,56.50
2022-10-30T22:57:52.525Z,56.50
2022-10-30T23:01:04.479Z,56.50
2022-10-30T23:04:09.716Z,56.50
2022-10-30T23:07:11.116Z,56.20
2022-10-30T23:10:12.486Z,56.60
2022-10-30T23:13:13.960Z,56.90
2022-10-30T23:16:16.168Z,57.00
2022-10-30T23:19:18.140Z,56.80
2022-10-30T23:22:22.740Z,56.90
2022-10-30T23:25:24.273Z,56.60
2022-10-30T23:28:25.878Z,56.60
2022-10-30T23:31:29.218Z,56.40
2022-10-30T23:34:31.150Z,56.50
2022-10-30T23:37:32.761Z,56.60
2022-10-30T23:40:34.123Z,56.30
2022-10-30T23:43:35.541Z,56.60
2022-10-30T23:46:37.252Z,56.50
2022-10-30T23:49:39.261Z,56.30
2022-10-30T23:52:43.993Z,56.90
2022-10-30T23:55:55.706Z,56.60
2022-10-30T23:58:57.547Z,56.60
